ADDS METAR Data INFO
IDs: Format: Raw Decoded Include TAF

Data at: 1942 UTC 17 Feb 2018

KPNT 171935Z AUTO 19007KT 3/4SM -SN OVC004 00/00 A2996 RMK AO2 T00000000
KPNT 171915Z AUTO 20007KT 3/4SM -SN OVC004 00/00 A2997 RMK AO2 T00000000
KPNT 171855Z AUTO 18010KT 1 1/4SM -SN SCT006 OVC015 00/00 A2997 RMK AO2 T00030001
KPNT 171835Z AUTO 19012G16KT 7SM -RA OVC017 01/00 A2998 RMK AO2 T00140000
KPNT 171815Z AUTO 19010KT 10SM SCT017 SCT045 OVC090 02/00 A2998 RMK AO2 T00170003
KPNT 171755Z AUTO 17012KT 10SM OVC090 02/00 A3000 RMK AO2 T00150000 10015 21050
KPNT 171735Z AUTO 17010KT 10SM SCT070 OVC080 01/00 A3002 RMK AO2 T00100000
KPNT 171715Z AUTO 16008KT 10SM OVC080 01/00 A3003 RMK AO2 T00061001
KPNT 171655Z AUTO 17009KT 10SM BKN090 00/00 A3004 RMK AO2 T00041001
KPNT 171635Z AUTO 17010KT 10SM BKN090 00/00 A3006 RMK AO2 T00011004
KPNT 171615Z AUTO 18008KT 10SM SCT090 00/00 A3007 RMK AO2 T00001003
KPNT 171555Z AUTO 17008KT 10SM CLR 00/M01 A3007 RMK AO2 T10041006
KPNT 171535Z AUTO 17008KT 10SM SCT120 M01/M01 A3008 RMK AO2 T10071010
KPNT 171515Z AUTO 17011KT 10SM SCT100 M01/M01 A3008 RMK AO2 T10101013
KPNT 171455Z AUTO 17009KT 10SM OVC100 M01/M02 A3009 RMK AO2 T10141016
KPNT 171435Z AUTO 16009KT 10SM BKN110 M02/M02 A3008 RMK AO2 T10171020
KPNT 171415Z AUTO 16006KT 10SM SCT120 M02/M02 A3010 RMK AO2 T10221025
KPNT 171355Z AUTO 15007KT 10SM SCT120 M03/M03 A3009 RMK AO2 T10271029
KPNT 171335Z AUTO 15008KT 10SM SCT120 M03/M03 A3011 RMK AO2 T10301032
KPNT 171315Z AUTO 15009KT 10SM SCT120 M04/M04 A3012 RMK AO2 T10361038
KPNT 171255Z AUTO 14009KT 10SM CLR M04/M04 A3011 RMK AO2 T10401041
KPNT 171235Z AUTO 14010KT 10SM CLR M04/M04 A3013 RMK AO2 T10421045
KPNT 171215Z AUTO 13008KT 10SM CLR M04/M05 A3015 RMK AO2 T10451047
KPNT 171155Z AUTO 14005KT 10SM CLR M05/M05 A3017 RMK AO2 T10501051 11050 21077
KPNT 171135Z AUTO 12006KT 10SM CLR M05/M06 A3017 RMK AO2 T10511056
KPNT 171115Z AUTO 12005KT 10SM CLR M05/M06 A3017 RMK AO2 T10551061
KPNT 171055Z AUTO 12004KT 10SM CLR M05/M06 A3018 RMK AO2 T10551062
KPNT 171035Z AUTO 13004KT 10SM CLR M06/M06 A3018 RMK AO2 T10571060
KPNT 171015Z AUTO 14005KT 10SM CLR M06/M06 A3018 RMK AO2 T10601062
KPNT 170955Z AUTO 13005KT 10SM CLR M06/M06 A3018 RMK AO2 T10611063
KPNT 170935Z AUTO 13004KT 10SM CLR M06/M06 A3020 RMK AO2 T10631065
KPNT 170915Z AUTO 14006KT 10SM CLR M06/M06 A3020 RMK AO2 T10631065
KPNT 170855Z AUTO 13003KT 10SM CLR M06/M07 A3021 RMK AO2 T10651067
KPNT 170835Z AUTO 11003KT 10SM CLR M07/M07 A3021 RMK AO2 T10731075
KPNT 170815Z AUTO 00000KT 10SM CLR M07/M08 A3023 RMK AO2 T10751077
KPNT 170755Z AUTO 12003KT 10SM CLR M07/M08 A3024 RMK AO2 T10751077
KPNT 170735Z AUTO 00000KT 10SM CLR M07/M07 A3025 RMK AO2 T10691070
KPNT 170715Z AUTO 00000KT 10SM CLR M07/M07 A3025 RMK AO2 T10711073
KPNT 170655Z AUTO 00000KT 10SM CLR M07/M07 A3027 RMK AO2 T10691074
KPNT 170635Z AUTO 00000KT 10SM CLR M07/M07 A3027 RMK AO2 T10671072
KPNT 170615Z AUTO 00000KT 10SM CLR M07/M07 A3027 RMK AO2 T10661073
KPNT 170555Z AUTO 00000KT 10SM CLR M06/M07 A3027 RMK AO2 T10651075 11033 21066 400231066
KPNT 170535Z AUTO 00000KT 10SM CLR M07/M07 A3027 RMK AO2 T10661073
KPNT 170515Z AUTO 00000KT 10SM CLR M06/M07 A3028 RMK AO2 T10631068
KPNT 170455Z AUTO 00000KT 10SM CLR M06/M06 A3029 RMK AO2 T10641065
KPNT 170435Z AUTO 00000KT 10SM CLR M06/M07 A3030 RMK AO2 T10621069
KPNT 170415Z AUTO 00000KT 10SM CLR M06/M07 A3031 RMK AO2 T10621067
KPNT 170355Z AUTO 00000KT 10SM CLR M06/M07 A3031 RMK AO2 T10601070
KPNT 170335Z AUTO 00000KT 10SM CLR M06/M07 A3031 RMK AO2 T10571074
KPNT 170315Z AUTO 00000KT 10SM CLR M06/M07 A3030 RMK AO2 T10571069
KPNT 170255Z AUTO 00000KT 10SM CLR M06/M07 A3031 RMK AO2 T10591066
KPNT 170235Z AUTO 00000KT 10SM CLR M05/M08 A3031 RMK AO2 T10511078
KPNT 170215Z AUTO 00000KT 10SM CLR M05/M08 A3032 RMK AO2 T10501080
KPNT 170155Z AUTO 00000KT 10SM CLR M05/M08 A3033 RMK AO2 T10491076
KPNT 170135Z AUTO 28003KT 10SM CLR M05/M07 A3034 RMK AO2 T10461074
KPNT 170115Z AUTO 30006KT 10SM CLR M04/M08 A3034 RMK AO2 T10421078
KPNT 170055Z AUTO 30004KT 10SM CLR M04/M07 A3033 RMK AO2 T10411073
KPNT 170035Z AUTO 30007KT 10SM CLR M04/M07 A3033 RMK AO2 T10381072
KPNT 170015Z AUTO 29006KT 10SM CLR M03/M07 A3033 RMK AO2 T10351070
KPNT 162355Z AUTO 29008KT 10SM CLR M03/M07 A3032 RMK AO2 T10321068 10013 21032
KPNT 162335Z AUTO 30008KT 10SM CLR M03/M06 A3032 RMK AO2 T10301062
KPNT 162315Z AUTO 30008KT 10SM CLR M02/M06 A3032 RMK AO2 T10251059
KPNT 162255Z AUTO 30009KT 10SM CLR M02/M06 A3032 RMK AO2 T10201059
KPNT 162235Z AUTO 29011KT 10SM CLR M02/M06 A3032 RMK AO2 T10161062
KPNT 162215Z AUTO 30011KT 10SM CLR M01/M06 A3032 RMK AO2 T10131060
KPNT 162155Z AUTO 29011KT 10SM CLR M01/M05 A3031 RMK AO2 T10101054
KPNT 162135Z AUTO 30011KT 10SM SCT020 00/M04 A3031 RMK AO2 T10051043
KPNT 162115Z AUTO 31011KT 10SM SCT021 00/M04 A3031 RMK AO2 T10041041
KPNT 162055Z AUTO 31011KT 10SM SCT021 00/M04 A3032 RMK AO2 T10021037
KPNT 162035Z AUTO 30013KT 10SM BKN019 00/M03 A3032 RMK AO2 T10021035
KPNT 162015Z AUTO 30013G16KT 10SM OVC019 00/M03 A3031 RMK AO2 T10051032
KPNT 161955Z AUTO 31014G17KT 10SM OVC019 00/M03 A3031 RMK AO2 T10031029
KPNT 161935Z AUTO 32012KT 10SM OVC019 00/M02 A3031 RMK AO2 T00031020
KPNT 161915Z AUTO 29015KT 10SM BKN019 OVC029 01/M02 A3030 RMK AO2 T00051016
KPNT 161855Z AUTO 30015G20KT 10SM BKN019 OVC027 00/M01 A3030 RMK AO2 T00041015
KPNT 161835Z AUTO 31014KT 10SM SCT017 OVC027 01/M01 A3030 RMK AO2 T00051011
KPNT 161815Z AUTO 31016G21KT 10SM BKN021 OVC027 01/M01 A3030 RMK AO2 T00101012
KPNT 161755Z AUTO 30014G18KT 10SM SCT021 OVC029 01/M01 A3029 RMK AO2 T00131009 10021 20003
KPNT 161735Z AUTO 33008KT 10SM BKN029 02/M03 A3028 RMK AO2 T00151033
KPNT 161715Z AUTO 32012KT 10SM OVC031 02/M02 A3028 RMK AO2 T00161019
KPNT 161655Z AUTO 32011KT 10SM SCT022 OVC029 01/M01 A3028 RMK AO2 T00101012
KPNT 161635Z AUTO 32008KT 10SM SCT022 OVC027 01/M01 A3027 RMK AO2 T00071012
KPNT 161615Z AUTO 33011KT 10SM OVC029 01/M02 A3026 RMK AO2 T00071016
KPNT 161555Z AUTO 33010KT 10SM OVC031 01/M01 A3025 RMK AO2 T00081013
KPNT 161535Z AUTO 34011KT 10SM OVC031 01/M02 A3024 RMK AO2 T00061019
KPNT 161515Z AUTO 35009KT 10SM OVC029 01/M02 A3023 RMK AO2 T00051019
KPNT 161455Z AUTO 35012G17KT 10SM OVC029 00/M02 A3022 RMK AO2 T00031022
KPNT 161435Z AUTO 35012KT 10SM OVC029 01/M02 A3020 RMK AO2 T00051023
KPNT 161415Z AUTO 34013G20KT 10SM OVC029 01/M02 A3019 RMK AO2 T00061021
KPNT 161355Z AUTO 34013KT 10SM OVC025 01/M01 A3018 RMK AO2 T00071014
KPNT 161335Z AUTO 34015G19KT 10SM BKN023 OVC027 01/00 A3018 RMK AO2 T00101001
KPNT 161315Z AUTO 33013KT 10SM OVC027 01/00 A3015 RMK AO2 T00100003
KPNT 161255Z AUTO 33016G21KT 10SM SCT022 OVC030 01/00 A3014 RMK AO2 T00120000
KPNT 161235Z AUTO 32011KT 10SM OVC024 01/01 A3014 RMK AO2 T00100007
KPNT 161215Z AUTO 33008KT 10SM OVC026 01/01 A3012 RMK AO2 T00110005
KPNT 161155Z AUTO 35010KT 10SM BKN028 OVC043 01/00 A3010 RMK AO2 70003 T00130002 10023 20012
KPNT 161135Z AUTO 35012G18KT 10SM SCT028 OVC043 02/00 A3009 RMK AO2 T00150000
KPNT 161115Z AUTO 33012KT 10SM BKN041 OVC120 02/00 A3009 RMK AO2 T00150002
KPNT 161055Z AUTO 34010G16KT 10SM SCT041 SCT095 BKN110 01/01 A3006 RMK AO2 T00140005
KPNT 161035Z AUTO 33010KT 10SM BKN090 OVC110 02/01 A3005 RMK AO2 T00160010
KPNT 161015Z AUTO 32011KT 10SM OVC090 02/01 A3004 RMK AO2 T00180011
KPNT 160955Z AUTO 33008KT 10SM OVC100 02/01 A3002 RMK AO2 T00190013
KPNT 160935Z AUTO 33007KT 10SM OVC100 02/01 A3001 RMK AO2 T00200013
KPNT 160915Z AUTO 33010KT 10SM BKN110 02/02 A2998 RMK AO2 T00200015
KPNT 160855Z AUTO 33010KT 10SM BKN110 02/01 A2998 RMK AO2 T00220014
KPNT 160835Z AUTO 32010KT 10SM SCT080 BKN120 02/02 A2999 RMK AO2 T00220016
KPNT 160815Z AUTO 32009KT 10SM BKN080 02/02 A2998 RMK AO2 T00200018
KPNT 160755Z AUTO 32009KT 10SM CLR 02/02 A2995 RMK AO2 T00200017